sensor_id;sensor_type;location;lat;lon;timestamp;P1;durP1;ratioP1;P2;durP2;ratioP2
9815;SDS011;4947;44.526;11.360;2022-12-07T00:00:54;80.77;;;31.43;;
9815;SDS011;4947;44.526;11.360;2022-12-07T00:03:21;79.80;;;31.80;;
9815;SDS011;4947;44.526;11.360;2022-12-07T00:05:49;72.90;;;30.30;;
9815;SDS011;4947;44.526;11.360;2022-12-07T00:08:16;73.10;;;29.30;;
9815;SDS011;4947;44.526;11.360;2022-12-07T00:10:48;68.18;;;28.55;;
9815;SDS011;4947;44.526;11.360;2022-12-07T00:13:17;66.87;;;27.40;;
9815;SDS011;4947;44.526;11.360;2022-12-07T00:15:45;68.03;;;27.23;;
9815;SDS011;4947;44.526;11.360;2022-12-07T00:18:12;66.20;;;26.87;;
9815;SDS011;4947;44.526;11.360;2022-12-07T00:20:40;66.20;;;27.17;;
9815;SDS011;4947;44.526;11.360;2022-12-07T00:23:08;70.60;;;25.60;;
9815;SDS011;4947;44.526;11.360;2022-12-07T00:25:35;61.90;;;26.70;;
9815;SDS011;4947;44.526;11.360;2022-12-07T00:28:03;61.43;;;26.80;;
9815;SDS011;4947;44.526;11.360;2022-12-07T00:30:32;71.03;;;26.90;;
9815;SDS011;4947;44.526;11.360;2022-12-07T00:32:59;61.27;;;25.60;;
9815;SDS011;4947;44.526;11.360;2022-12-07T00:35:27;64.60;;;25.10;;
9815;SDS011;4947;44.526;11.360;2022-12-07T00:37:56;77.40;;;27.70;;
9815;SDS011;4947;44.526;11.360;2022-12-07T00:40:23;62.83;;;27.13;;
9815;SDS011;4947;44.526;11.360;2022-12-07T00:42:51;62.63;;;25.10;;
9815;SDS011;4947;44.526;11.360;2022-12-07T00:45:18;78.73;;;27.43;;
9815;SDS011;4947;44.526;11.360;2022-12-07T00:47:47;67.20;;;27.43;;
9815;SDS011;4947;44.526;11.360;2022-12-07T00:50:15;64.17;;;25.97;;
9815;SDS011;4947;44.526;11.360;2022-12-07T00:52:42;69.17;;;27.20;;
9815;SDS011;4947;44.526;11.360;2022-12-07T00:55:10;89.63;;;27.47;;
9815;SDS011;4947;44.526;11.360;2022-12-07T00:57:37;82.65;;;29.52;;
9815;SDS011;4947;44.526;11.360;2022-12-07T01:00:06;72.37;;;27.83;;
9815;SDS011;4947;44.526;11.360;2022-12-07T01:02:37;73.90;;;24.73;;
9815;SDS011;4947;44.526;11.360;2022-12-07T01:05:07;69.10;;;28.10;;
9815;SDS011;4947;44.526;11.360;2022-12-07T01:07:36;61.40;;;27.83;;
9815;SDS011;4947;44.526;11.360;2022-12-07T01:10:03;60.67;;;25.20;;
9815;SDS011;4947;44.526;11.360;2022-12-07T01:12:32;64.80;;;27.43;;
9815;SDS011;4947;44.526;11.360;2022-12-07T01:15:00;66.03;;;27.00;;
9815;SDS011;4947;44.526;11.360;2022-12-07T01:17:27;58.72;;;26.98;;
9815;SDS011;4947;44.526;11.360;2022-12-07T01:19:55;60.57;;;24.73;;
9815;SDS011;4947;44.526;11.360;2022-12-07T01:22:25;75.20;;;26.10;;
9815;SDS011;4947;44.526;11.360;2022-12-07T01:24:53;55.97;;;27.20;;
9815;SDS011;4947;44.526;11.360;2022-12-07T01:27:23;65.67;;;24.33;;
9815;SDS011;4947;44.526;11.360;2022-12-07T01:29:51;74.07;;;25.23;;
9815;SDS011;4947;44.526;11.360;2022-12-07T01:32:18;72.23;;;27.10;;
9815;SDS011;4947;44.526;11.360;2022-12-07T01:34:47;63.90;;;25.40;;
9815;SDS011;4947;44.526;11.360;2022-12-07T01:37:14;60.90;;;24.97;;
9815;SDS011;4947;44.526;11.360;2022-12-07T01:39:44;65.53;;;24.77;;
9815;SDS011;4947;44.526;11.360;2022-12-07T01:42:14;64.00;;;24.70;;
9815;SDS011;4947;44.526;11.360;2022-12-07T01:47:43;64.53;;;25.93;;
9815;SDS011;4947;44.526;11.360;2022-12-07T01:50:18;74.30;;;25.37;;
9815;SDS011;4947;44.526;11.360;2022-12-07T01:52:46;66.85;;;26.08;;
9815;SDS011;4947;44.526;11.360;2022-12-07T01:55:19;63.07;;;26.43;;
9815;SDS011;4947;44.526;11.360;2022-12-07T01:57:49;63.13;;;24.23;;
9815;SDS011;4947;44.526;11.360;2022-12-07T02:00:20;69.77;;;27.07;;
9815;SDS011;4947;44.526;11.360;2022-12-07T02:02:48;71.80;;;26.83;;
9815;SDS011;4947;44.526;11.360;2022-12-07T02:05:19;64.10;;;26.57;;
9815;SDS011;4947;44.526;11.360;2022-12-07T02:07:48;68.43;;;25.23;;
9815;SDS011;4947;44.526;11.360;2022-12-07T02:10:18;71.17;;;28.40;;
9815;SDS011;4947;44.526;11.360;2022-12-07T02:12:49;77.28;;;28.20;;
9815;SDS011;4947;44.526;11.360;2022-12-07T02:15:20;57.93;;;24.23;;
9815;SDS011;4947;44.526;11.360;2022-12-07T02:17:51;63.00;;;26.42;;
9815;SDS011;4947;44.526;11.360;2022-12-07T02:20:28;55.72;;;25.58;;
9815;SDS011;4947;44.526;11.360;2022-12-07T02:23:04;60.20;;;26.13;;
9815;SDS011;4947;44.526;11.360;2022-12-07T02:26:28;61.27;;;24.17;;
9815;SDS011;4947;44.526;11.360;2022-12-07T02:29:25;60.93;;;25.37;;
9815;SDS011;4947;44.526;11.360;2022-12-07T02:31:59;66.47;;;26.13;;
9815;SDS011;4947;44.526;11.360;2022-12-07T02:34:36;68.13;;;26.30;;
9815;SDS011;4947;44.526;11.360;2022-12-07T02:37:12;78.47;;;25.87;;
9815;SDS011;4947;44.526;11.360;2022-12-07T02:39:50;72.45;;;25.90;;
9815;SDS011;4947;44.526;11.360;2022-12-07T02:42:23;69.40;;;26.40;;
9815;SDS011;4947;44.526;11.360;2022-12-07T02:44:56;73.60;;;26.73;;
9815;SDS011;4947;44.526;11.360;2022-12-07T02:47:24;75.57;;;27.77;;
9815;SDS011;4947;44.526;11.360;2022-12-07T02:49:53;54.33;;;24.77;;
9815;SDS011;4947;44.526;11.360;2022-12-07T02:52:21;74.53;;;25.80;;
9815;SDS011;4947;44.526;11.360;2022-12-07T02:54:49;98.37;;;28.93;;
9815;SDS011;4947;44.526;11.360;2022-12-07T02:57:26;71.57;;;28.07;;
9815;SDS011;4947;44.526;11.360;2022-12-07T03:00:21;65.13;;;25.50;;
9815;SDS011;4947;44.526;11.360;2022-12-07T03:02:50;85.73;;;28.43;;
9815;SDS011;4947;44.526;11.360;2022-12-07T03:08:13;88.17;;;28.97;;
9815;SDS011;4947;44.526;11.360;2022-12-07T03:10:48;85.93;;;30.10;;
9815;SDS011;4947;44.526;11.360;2022-12-07T03:13:22;90.73;;;29.10;;
9815;SDS011;4947;44.526;11.360;2022-12-07T03:15:55;80.20;;;28.93;;
9815;SDS011;4947;44.526;11.360;2022-12-07T03:18:29;86.00;;;31.53;;
9815;SDS011;4947;44.526;11.360;2022-12-07T03:21:00;85.70;;;28.03;;
9815;SDS011;4947;44.526;11.360;2022-12-07T03:23:31;87.33;;;29.47;;
9815;SDS011;4947;44.526;11.360;2022-12-07T03:26:02;88.47;;;27.30;;
9815;SDS011;4947;44.526;11.360;2022-12-07T03:28:33;94.53;;;29.83;;
9815;SDS011;4947;44.526;11.360;2022-12-07T03:31:07;89.83;;;30.53;;
9815;SDS011;4947;44.526;11.360;2022-12-07T03:33:42;106.23;;;31.40;;
9815;SDS011;4947;44.526;11.360;2022-12-07T03:36:16;91.13;;;30.37;;
9815;SDS011;4947;44.526;11.360;2022-12-07T03:38:49;97.43;;;30.45;;
9815;SDS011;4947;44.526;11.360;2022-12-07T03:41:22;115.43;;;31.93;;
9815;SDS011;4947;44.526;11.360;2022-12-07T03:43:51;92.10;;;31.58;;
9815;SDS011;4947;44.526;11.360;2022-12-07T03:46:26;79.70;;;29.37;;
9815;SDS011;4947;44.526;11.360;2022-12-07T03:49:03;73.73;;;27.63;;
9815;SDS011;4947;44.526;11.360;2022-12-07T03:51:37;107.10;;;27.83;;
9815;SDS011;4947;44.526;11.360;2022-12-07T03:54:13;80.93;;;29.30;;
9815;SDS011;4947;44.526;11.360;2022-12-07T03:56:46;75.30;;;29.43;;
9815;SDS011;4947;44.526;11.360;2022-12-07T03:59:14;111.32;;;31.08;;
9815;SDS011;4947;44.526;11.360;2022-12-07T04:01:45;81.53;;;29.40;;
9815;SDS011;4947;44.526;11.360;2022-12-07T04:04:19;101.20;;;31.23;;
9815;SDS011;4947;44.526;11.360;2022-12-07T04:06:46;92.77;;;30.67;;
9815;SDS011;4947;44.526;11.360;2022-12-07T04:09:14;97.37;;;33.40;;
9815;SDS011;4947;44.526;11.360;2022-12-07T04:11:42;94.53;;;30.23;;
9815;SDS011;4947;44.526;11.360;2022-12-07T04:14:10;90.03;;;30.77;;
9815;SDS011;4947;44.526;11.360;2022-12-07T04:16:47;90.40;;;31.63;;
9815;SDS011;4947;44.526;11.360;2022-12-07T04:19:17;86.63;;;30.77;;
9815;SDS011;4947;44.526;11.360;2022-12-07T04:21:46;93.63;;;31.67;;
9815;SDS011;4947;44.526;11.360;2022-12-07T04:24:14;96.67;;;31.20;;
9815;SDS011;4947;44.526;11.360;2022-12-07T04:26:42;88.10;;;30.80;;
9815;SDS011;4947;44.526;11.360;2022-12-07T04:29:10;95.93;;;31.83;;
9815;SDS011;4947;44.526;11.360;2022-12-07T04:31:38;120.53;;;33.47;;
9815;SDS011;4947;44.526;11.360;2022-12-07T04:34:08;107.03;;;32.50;;
9815;SDS011;4947;44.526;11.360;2022-12-07T04:36:37;106.65;;;32.60;;
9815;SDS011;4947;44.526;11.360;2022-12-07T04:39:06;149.87;;;34.37;;
9815;SDS011;4947;44.526;11.360;2022-12-07T04:41:34;112.53;;;32.97;;
9815;SDS011;4947;44.526;11.360;2022-12-07T04:44:03;93.87;;;32.10;;
9815;SDS011;4947;44.526;11.360;2022-12-07T04:46:32;89.03;;;29.87;;
9815;SDS011;4947;44.526;11.360;2022-12-07T04:49:00;131.30;;;32.40;;
9815;SDS011;4947;44.526;11.360;2022-12-07T04:51:29;96.97;;;29.83;;
9815;SDS011;4947;44.526;11.360;2022-12-07T04:53:57;96.88;;;31.90;;
9815;SDS011;4947;44.526;11.360;2022-12-07T04:56:24;108.27;;;33.40;;
9815;SDS011;4947;44.526;11.360;2022-12-07T04:58:52;91.60;;;31.57;;
9815;SDS011;4947;44.526;11.360;2022-12-07T05:01:21;116.22;;;34.33;;
9815;SDS011;4947;44.526;11.360;2022-12-07T05:03:55;98.87;;;33.23;;
9815;SDS011;4947;44.526;11.360;2022-12-07T05:06:23;97.15;;;33.85;;
9815;SDS011;4947;44.526;11.360;2022-12-07T05:08:52;118.60;;;35.97;;
9815;SDS011;4947;44.526;11.360;2022-12-07T05:11:20;116.57;;;33.70;;
9815;SDS011;4947;44.526;11.360;2022-12-07T05:14:06;116.40;;;35.73;;
9815;SDS011;4947;44.526;11.360;2022-12-07T05:16:35;107.13;;;33.87;;
9815;SDS011;4947;44.526;11.360;2022-12-07T05:19:03;117.47;;;35.50;;
9815;SDS011;4947;44.526;11.360;2022-12-07T05:21:33;112.80;;;36.80;;
9815;SDS011;4947;44.526;11.360;2022-12-07T05:24:02;119.95;;;40.55;;
9815;SDS011;4947;44.526;11.360;2022-12-07T05:26:30;120.13;;;36.53;;
9815;SDS011;4947;44.526;11.360;2022-12-07T05:28:58;107.10;;;36.67;;
9815;SDS011;4947;44.526;11.360;2022-12-07T05:31:26;136.82;;;40.40;;
9815;SDS011;4947;44.526;11.360;2022-12-07T05:33:54;133.88;;;40.42;;
9815;SDS011;4947;44.526;11.360;2022-12-07T05:36:21;120.18;;;38.25;;
9815;SDS011;4947;44.526;11.360;2022-12-07T05:38:49;125.10;;;40.03;;
9815;SDS011;4947;44.526;11.360;2022-12-07T05:41:18;133.87;;;38.67;;
9815;SDS011;4947;44.526;11.360;2022-12-07T05:44:03;126.47;;;38.90;;
9815;SDS011;4947;44.526;11.360;2022-12-07T05:46:31;121.07;;;38.60;;
9815;SDS011;4947;44.526;11.360;2022-12-07T05:48:59;124.87;;;39.43;;
9815;SDS011;4947;44.526;11.360;2022-12-07T05:51:26;115.63;;;38.27;;
9815;SDS011;4947;44.526;11.360;2022-12-07T05:53:57;110.83;;;39.03;;
9815;SDS011;4947;44.526;11.360;2022-12-07T05:56:26;122.63;;;40.80;;
9815;SDS011;4947;44.526;11.360;2022-12-07T05:58:54;134.27;;;40.03;;
9815;SDS011;4947;44.526;11.360;2022-12-07T06:01:37;130.97;;;41.47;;
9815;SDS011;4947;44.526;11.360;2022-12-07T06:04:05;124.87;;;42.67;;
9815;SDS011;4947;44.526;11.360;2022-12-07T06:06:33;135.87;;;40.80;;
9815;SDS011;4947;44.526;11.360;2022-12-07T06:09:01;133.60;;;43.77;;
9815;SDS011;4947;44.526;11.360;2022-12-07T06:11:31;131.88;;;43.90;;
9815;SDS011;4947;44.526;11.360;2022-12-07T06:14:15;137.43;;;41.70;;
9815;SDS011;4947;44.526;11.360;2022-12-07T06:16:43;123.67;;;40.80;;
9815;SDS011;4947;44.526;11.360;2022-12-07T06:19:10;138.97;;;42.50;;
9815;SDS011;4947;44.526;11.360;2022-12-07T06:21:38;129.88;;;42.63;;
9815;SDS011;4947;44.526;11.360;2022-12-07T06:24:06;137.20;;;41.20;;
9815;SDS011;4947;44.526;11.360;2022-12-07T06:26:35;137.10;;;42.93;;
9815;SDS011;4947;44.526;11.360;2022-12-07T06:29:03;111.57;;;40.00;;
9815;SDS011;4947;44.526;11.360;2022-12-07T06:31:31;129.25;;;41.60;;
9815;SDS011;4947;44.526;11.360;2022-12-07T06:33:58;127.70;;;40.33;;
9815;SDS011;4947;44.526;11.360;2022-12-07T06:36:26;124.97;;;42.87;;
9815;SDS011;4947;44.526;11.360;2022-12-07T06:38:54;125.77;;;38.30;;
9815;SDS011;4947;44.526;11.360;2022-12-07T06:41:22;120.45;;;41.35;;
9815;SDS011;4947;44.526;11.360;2022-12-07T06:43:52;134.57;;;42.23;;
9815;SDS011;4947;44.526;11.360;2022-12-07T06:46:26;130.80;;;40.33;;
9815;SDS011;4947;44.526;11.360;2022-12-07T06:48:54;137.17;;;40.73;;
9815;SDS011;4947;44.526;11.360;2022-12-07T06:51:21;114.23;;;40.83;;
9815;SDS011;4947;44.526;11.360;2022-12-07T06:53:49;113.88;;;36.28;;
9815;SDS011;4947;44.526;11.360;2022-12-07T06:56:16;113.03;;;38.33;;
9815;SDS011;4947;44.526;11.360;2022-12-07T06:58:44;116.63;;;38.10;;
9815;SDS011;4947;44.526;11.360;2022-12-07T07:01:13;112.03;;;38.55;;
9815;SDS011;4947;44.526;11.360;2022-12-07T07:03:46;107.47;;;36.13;;
9815;SDS011;4947;44.526;11.360;2022-12-07T07:06:14;104.53;;;37.42;;
9815;SDS011;4947;44.526;11.360;2022-12-07T07:08:42;101.80;;;34.00;;
9815;SDS011;4947;44.526;11.360;2022-12-07T07:11:10;105.00;;;36.67;;
9815;SDS011;4947;44.526;11.360;2022-12-07T07:13:38;104.28;;;34.15;;
9815;SDS011;4947;44.526;11.360;2022-12-07T07:16:05;99.35;;;34.55;;
9815;SDS011;4947;44.526;11.360;2022-12-07T07:18:35;101.13;;;35.53;;
9815;SDS011;4947;44.526;11.360;2022-12-07T07:21:03;100.55;;;37.28;;
9815;SDS011;4947;44.526;11.360;2022-12-07T07:23:31;107.45;;;35.60;;
9815;SDS011;4947;44.526;11.360;2022-12-07T07:25:59;97.25;;;36.25;;
9815;SDS011;4947;44.526;11.360;2022-12-07T07:28:27;98.22;;;34.72;;
9815;SDS011;4947;44.526;11.360;2022-12-07T07:30:57;105.83;;;35.20;;
9815;SDS011;4947;44.526;11.360;2022-12-07T07:33:24;97.30;;;35.83;;
9815;SDS011;4947;44.526;11.360;2022-12-07T07:35:53;100.23;;;35.53;;
9815;SDS011;4947;44.526;11.360;2022-12-07T07:38:20;96.70;;;34.37;;
9815;SDS011;4947;44.526;11.360;2022-12-07T07:40:48;101.57;;;35.77;;
9815;SDS011;4947;44.526;11.360;2022-12-07T07:43:15;98.68;;;36.67;;
9815;SDS011;4947;44.526;11.360;2022-12-07T07:45:43;97.15;;;33.92;;
9815;SDS011;4947;44.526;11.360;2022-12-07T07:48:10;108.13;;;39.08;;
9815;SDS011;4947;44.526;11.360;2022-12-07T07:50:38;118.03;;;40.45;;
9815;SDS011;4947;44.526;11.360;2022-12-07T07:53:07;124.85;;;37.45;;
9815;SDS011;4947;44.526;11.360;2022-12-07T07:55:34;120.80;;;40.05;;
9815;SDS011;4947;44.526;11.360;2022-12-07T07:58:02;131.05;;;38.60;;
9815;SDS011;4947;44.526;11.360;2022-12-07T08:00:30;101.65;;;35.65;;
9815;SDS011;4947;44.526;11.360;2022-12-07T08:02:57;109.60;;;37.57;;
9815;SDS011;4947;44.526;11.360;2022-12-07T08:05:25;98.57;;;38.03;;
9815;SDS011;4947;44.526;11.360;2022-12-07T08:07:52;106.83;;;35.93;;
9815;SDS011;4947;44.526;11.360;2022-12-07T08:10:21;91.77;;;36.13;;
9815;SDS011;4947;44.526;11.360;2022-12-07T08:12:48;104.35;;;37.35;;
9815;SDS011;4947;44.526;11.360;2022-12-07T08:15:33;99.30;;;34.67;;
9815;SDS011;4947;44.526;11.360;2022-12-07T08:18:03;96.75;;;34.47;;
9815;SDS011;4947;44.526;11.360;2022-12-07T08:20:31;98.63;;;34.70;;
9815;SDS011;4947;44.526;11.360;2022-12-07T08:22:59;106.72;;;38.30;;
9815;SDS011;4947;44.526;11.360;2022-12-07T08:25:31;108.10;;;36.57;;
9815;SDS011;4947;44.526;11.360;2022-12-07T08:27:59;101.23;;;36.40;;
9815;SDS011;4947;44.526;11.360;2022-12-07T08:30:27;109.20;;;38.07;;
9815;SDS011;4947;44.526;11.360;2022-12-07T08:32:56;106.47;;;35.53;;
9815;SDS011;4947;44.526;11.360;2022-12-07T08:35:24;103.75;;;36.45;;
9815;SDS011;4947;44.526;11.360;2022-12-07T08:37:52;106.77;;;37.67;;
9815;SDS011;4947;44.526;11.360;2022-12-07T08:40:20;99.35;;;34.22;;
9815;SDS011;4947;44.526;11.360;2022-12-07T08:42:51;96.70;;;37.60;;
9815;SDS011;4947;44.526;11.360;2022-12-07T08:45:19;89.90;;;36.17;;
9815;SDS011;4947;44.526;11.360;2022-12-07T08:47:48;102.20;;;39.58;;
9815;SDS011;4947;44.526;11.360;2022-12-07T08:50:20;90.45;;;36.03;;
9815;SDS011;4947;44.526;11.360;2022-12-07T08:52:48;91.17;;;34.97;;
9815;SDS011;4947;44.526;11.360;2022-12-07T08:55:19;94.22;;;35.17;;
9815;SDS011;4947;44.526;11.360;2022-12-07T08:57:47;88.83;;;35.87;;
9815;SDS011;4947;44.526;11.360;2022-12-07T09:00:17;91.73;;;35.23;;
9815;SDS011;4947;44.526;11.360;2022-12-07T09:02:45;105.60;;;42.53;;
9815;SDS011;4947;44.526;11.360;2022-12-07T09:05:13;88.45;;;36.65;;
9815;SDS011;4947;44.526;11.360;2022-12-07T09:07:41;79.63;;;33.90;;
9815;SDS011;4947;44.526;11.360;2022-12-07T09:10:11;89.33;;;34.40;;
9815;SDS011;4947;44.526;11.360;2022-12-07T09:12:38;96.13;;;36.20;;
9815;SDS011;4947;44.526;11.360;2022-12-07T09:15:06;84.00;;;34.78;;
9815;SDS011;4947;44.526;11.360;2022-12-07T09:17:38;75.07;;;34.58;;
9815;SDS011;4947;44.526;11.360;2022-12-07T09:20:06;80.30;;;32.10;;
9815;SDS011;4947;44.526;11.360;2022-12-07T09:22:33;78.93;;;34.42;;
9815;SDS011;4947;44.526;11.360;2022-12-07T09:25:01;79.97;;;33.33;;
9815;SDS011;4947;44.526;11.360;2022-12-07T09:27:29;81.88;;;33.33;;
9815;SDS011;4947;44.526;11.360;2022-12-07T09:29:57;75.67;;;33.50;;
9815;SDS011;4947;44.526;11.360;2022-12-07T09:32:25;79.07;;;33.78;;
9815;SDS011;4947;44.526;11.360;2022-12-07T09:34:54;81.55;;;34.28;;
9815;SDS011;4947;44.526;11.360;2022-12-07T09:37:21;72.50;;;32.03;;
9815;SDS011;4947;44.526;11.360;2022-12-07T09:39:49;81.05;;;33.08;;
9815;SDS011;4947;44.526;11.360;2022-12-07T09:42:25;72.25;;;30.83;;
9815;SDS011;4947;44.526;11.360;2022-12-07T09:44:55;74.83;;;32.57;;
9815;SDS011;4947;44.526;11.360;2022-12-07T09:47:23;67.30;;;32.15;;
9815;SDS011;4947;44.526;11.360;2022-12-07T09:49:50;77.22;;;33.70;;
9815;SDS011;4947;44.526;11.360;2022-12-07T09:52:20;66.43;;;32.45;;
9815;SDS011;4947;44.526;11.360;2022-12-07T09:54:53;74.00;;;31.73;;
9815;SDS011;4947;44.526;11.360;2022-12-07T09:57:22;69.33;;;31.13;;
9815;SDS011;4947;44.526;11.360;2022-12-07T09:59:54;61.67;;;30.65;;
9815;SDS011;4947;44.526;11.360;2022-12-07T10:02:24;71.28;;;31.13;;
9815;SDS011;4947;44.526;11.360;2022-12-07T10:04:55;71.17;;;32.27;;
9815;SDS011;4947;44.526;11.360;2022-12-07T10:07:26;69.40;;;31.63;;
9815;SDS011;4947;44.526;11.360;2022-12-07T10:09:53;67.55;;;31.55;;
9815;SDS011;4947;44.526;11.360;2022-12-07T10:12:21;53.73;;;28.50;;
9815;SDS011;4947;44.526;11.360;2022-12-07T10:14:55;52.70;;;28.53;;
9815;SDS011;4947;44.526;11.360;2022-12-07T10:17:29;58.20;;;28.42;;
9815;SDS011;4947;44.526;11.360;2022-12-07T10:23:02;53.07;;;29.40;;
9815;SDS011;4947;44.526;11.360;2022-12-07T10:25:32;47.47;;;25.30;;
9815;SDS011;4947;44.526;11.360;2022-12-07T10:30:46;59.17;;;29.55;;
9815;SDS011;4947;44.526;11.360;2022-12-07T10:33:28;55.78;;;28.35;;
9815;SDS011;4947;44.526;11.360;2022-12-07T10:35:57;54.10;;;27.90;;
9815;SDS011;4947;44.526;11.360;2022-12-07T10:38:27;53.90;;;28.05;;
9815;SDS011;4947;44.526;11.360;2022-12-07T10:41:07;57.78;;;29.48;;
9815;SDS011;4947;44.526;11.360;2022-12-07T10:43:34;51.00;;;27.38;;
9815;SDS011;4947;44.526;11.360;2022-12-07T10:46:20;45.05;;;25.90;;
9815;SDS011;4947;44.526;11.360;2022-12-07T10:49:00;48.97;;;26.15;;
9815;SDS011;4947;44.526;11.360;2022-12-07T10:51:36;51.97;;;25.50;;
9815;SDS011;4947;44.526;11.360;2022-12-07T10:54:15;49.53;;;25.58;;
9815;SDS011;4947;44.526;11.360;2022-12-07T10:56:58;53.45;;;25.48;;
9815;SDS011;4947;44.526;11.360;2022-12-07T11:00:01;43.35;;;24.00;;
9815;SDS011;4947;44.526;11.360;2022-12-07T11:02:37;56.72;;;32.08;;
9815;SDS011;4947;44.526;11.360;2022-12-07T11:05:24;51.05;;;27.80;;
9815;SDS011;4947;44.526;11.360;2022-12-07T11:08:00;42.90;;;25.92;;
9815;SDS011;4947;44.526;11.360;2022-12-07T11:10:37;43.80;;;24.60;;
9815;SDS011;4947;44.526;11.360;2022-12-07T11:13:15;46.78;;;25.00;;
9815;SDS011;4947;44.526;11.360;2022-12-07T11:15:56;44.88;;;25.08;;
9815;SDS011;4947;44.526;11.360;2022-12-07T11:18:38;43.90;;;25.45;;
9815;SDS011;4947;44.526;11.360;2022-12-07T11:21:15;43.05;;;24.77;;
9815;SDS011;4947;44.526;11.360;2022-12-07T11:23:49;43.70;;;24.95;;
9815;SDS011;4947;44.526;11.360;2022-12-07T11:26:27;37.05;;;23.77;;
9815;SDS011;4947;44.526;11.360;2022-12-07T11:29:11;41.45;;;24.23;;
9815;SDS011;4947;44.526;11.360;2022-12-07T11:31:58;47.03;;;25.10;;
9815;SDS011;4947;44.526;11.360;2022-12-07T11:34:36;47.35;;;25.90;;
9815;SDS011;4947;44.526;11.360;2022-12-07T11:37:09;44.08;;;24.45;;
9815;SDS011;4947;44.526;11.360;2022-12-07T11:39:41;40.50;;;24.08;;
9815;SDS011;4947;44.526;11.360;2022-12-07T11:42:15;41.47;;;24.33;;
9815;SDS011;4947;44.526;11.360;2022-12-07T11:44:49;44.25;;;23.98;;
9815;SDS011;4947;44.526;11.360;2022-12-07T11:47:23;39.33;;;23.63;;
9815;SDS011;4947;44.526;11.360;2022-12-07T11:50:03;45.42;;;24.67;;
9815;SDS011;4947;44.526;11.360;2022-12-07T11:52:42;46.35;;;24.92;;
9815;SDS011;4947;44.526;11.360;2022-12-07T11:55:17;44.45;;;24.88;;
9815;SDS011;4947;44.526;11.360;2022-12-07T11:57:52;46.55;;;25.60;;
9815;SDS011;4947;44.526;11.360;2022-12-07T12:00:25;41.55;;;25.17;;
9815;SDS011;4947;44.526;11.360;2022-12-07T12:02:55;44.20;;;25.98;;
9815;SDS011;4947;44.526;11.360;2022-12-07T12:05:28;44.55;;;25.85;;
9815;SDS011;4947;44.526;11.360;2022-12-07T12:07:59;47.83;;;26.33;;
9815;SDS011;4947;44.526;11.360;2022-12-07T12:10:36;41.92;;;25.45;;
9815;SDS011;4947;44.526;11.360;2022-12-07T12:16:07;49.58;;;26.23;;
9815;SDS011;4947;44.526;11.360;2022-12-07T12:18:51;43.38;;;25.35;;
9815;SDS011;4947;44.526;11.360;2022-12-07T12:21:37;47.30;;;26.17;;
9815;SDS011;4947;44.526;11.360;2022-12-07T12:24:09;49.67;;;27.00;;
9815;SDS011;4947;44.526;11.360;2022-12-07T12:26:40;41.28;;;23.77;;
9815;SDS011;4947;44.526;11.360;2022-12-07T12:29:21;41.83;;;23.85;;
9815;SDS011;4947;44.526;11.360;2022-12-07T12:32:05;48.25;;;24.58;;
9815;SDS011;4947;44.526;11.360;2022-12-07T12:34:39;38.47;;;22.35;;
9815;SDS011;4947;44.526;11.360;2022-12-07T12:49:33;42.38;;;25.38;;
9815;SDS011;4947;44.526;11.360;2022-12-07T12:55:16;38.72;;;23.77;;
9815;SDS011;4947;44.526;11.360;2022-12-07T13:04:02;42.80;;;24.42;;
9815;SDS011;4947;44.526;11.360;2022-12-07T13:06:41;39.50;;;23.13;;
9815;SDS011;4947;44.526;11.360;2022-12-07T13:09:16;38.38;;;23.67;;
9815;SDS011;4947;44.526;11.360;2022-12-07T13:11:48;38.25;;;23.52;;
9815;SDS011;4947;44.526;11.360;2022-12-07T13:23:24;43.50;;;25.10;;
9815;SDS011;4947;44.526;11.360;2022-12-07T13:25:56;40.65;;;24.67;;
9815;SDS011;4947;44.526;11.360;2022-12-07T13:28:42;41.92;;;24.77;;
9815;SDS011;4947;44.526;11.360;2022-12-07T13:36:56;41.03;;;23.02;;
9815;SDS011;4947;44.526;11.360;2022-12-07T13:39:27;38.53;;;22.65;;
9815;SDS011;4947;44.526;11.360;2022-12-07T13:41:56;43.22;;;24.75;;
9815;SDS011;4947;44.526;11.360;2022-12-07T13:44:26;40.25;;;22.63;;
9815;SDS011;4947;44.526;11.360;2022-12-07T13:46:57;37.75;;;23.50;;
9815;SDS011;4947;44.526;11.360;2022-12-07T13:49:30;43.22;;;23.90;;
9815;SDS011;4947;44.526;11.360;2022-12-07T13:52:16;38.38;;;23.17;;
9815;SDS011;4947;44.526;11.360;2022-12-07T13:54:45;37.40;;;23.17;;
9815;SDS011;4947;44.526;11.360;2022-12-07T13:57:14;34.40;;;21.38;;
9815;SDS011;4947;44.526;11.360;2022-12-07T13:59:42;39.72;;;24.10;;
9815;SDS011;4947;44.526;11.360;2022-12-07T14:02:17;36.05;;;22.95;;
9815;SDS011;4947;44.526;11.360;2022-12-07T14:04:48;36.83;;;23.13;;
9815;SDS011;4947;44.526;11.360;2022-12-07T14:07:20;40.95;;;22.38;;
9815;SDS011;4947;44.526;11.360;2022-12-07T14:09:53;36.00;;;22.30;;
9815;SDS011;4947;44.526;11.360;2022-12-07T14:12:22;34.13;;;21.02;;
9815;SDS011;4947;44.526;11.360;2022-12-07T14:14:51;36.70;;;22.08;;
9815;SDS011;4947;44.526;11.360;2022-12-07T14:17:20;33.67;;;19.88;;
9815;SDS011;4947;44.526;11.360;2022-12-07T14:19:49;35.63;;;22.92;;
9815;SDS011;4947;44.526;11.360;2022-12-07T14:22:31;36.00;;;21.10;;
9815;SDS011;4947;44.526;11.360;2022-12-07T14:27:47;38.08;;;21.08;;
9815;SDS011;4947;44.526;11.360;2022-12-07T14:30:39;35.70;;;20.77;;
9815;SDS011;4947;44.526;11.360;2022-12-07T14:33:08;35.78;;;21.45;;
9815;SDS011;4947;44.526;11.360;2022-12-07T14:35:36;35.80;;;22.60;;
9815;SDS011;4947;44.526;11.360;2022-12-07T14:38:07;38.00;;;21.40;;
9815;SDS011;4947;44.526;11.360;2022-12-07T14:40:49;35.28;;;21.17;;
9815;SDS011;4947;44.526;11.360;2022-12-07T14:43:17;33.63;;;20.17;;
9815;SDS011;4947;44.526;11.360;2022-12-07T14:45:46;37.10;;;21.52;;
9815;SDS011;4947;44.526;11.360;2022-12-07T14:48:15;37.75;;;20.85;;
9815;SDS011;4947;44.526;11.360;2022-12-07T14:50:43;42.25;;;22.63;;
9815;SDS011;4947;44.526;11.360;2022-12-07T14:53:16;37.75;;;22.02;;
9815;SDS011;4947;44.526;11.360;2022-12-07T14:55:45;38.13;;;20.95;;
9815;SDS011;4947;44.526;11.360;2022-12-07T14:58:14;38.58;;;22.02;;
9815;SDS011;4947;44.526;11.360;2022-12-07T15:00:43;41.53;;;21.05;;
9815;SDS011;4947;44.526;11.360;2022-12-07T15:03:12;41.67;;;22.95;;
9815;SDS011;4947;44.526;11.360;2022-12-07T15:05:40;33.03;;;20.83;;
9815;SDS011;4947;44.526;11.360;2022-12-07T15:08:08;35.67;;;22.13;;
9815;SDS011;4947;44.526;11.360;2022-12-07T15:10:36;38.60;;;22.08;;
9815;SDS011;4947;44.526;11.360;2022-12-07T15:13:05;35.60;;;20.53;;
9815;SDS011;4947;44.526;11.360;2022-12-07T15:15:53;37.10;;;20.52;;
9815;SDS011;4947;44.526;11.360;2022-12-07T15:18:26;32.42;;;20.70;;
9815;SDS011;4947;44.526;11.360;2022-12-07T15:20:56;35.20;;;21.20;;
9815;SDS011;4947;44.526;11.360;2022-12-07T15:23:24;35.47;;;21.02;;
9815;SDS011;4947;44.526;11.360;2022-12-07T15:25:51;33.80;;;21.50;;
9815;SDS011;4947;44.526;11.360;2022-12-07T15:28:18;39.13;;;23.73;;
9815;SDS011;4947;44.526;11.360;2022-12-07T15:30:47;39.83;;;24.05;;
9815;SDS011;4947;44.526;11.360;2022-12-07T15:33:16;35.17;;;21.30;;
9815;SDS011;4947;44.526;11.360;2022-12-07T15:35:44;43.83;;;22.92;;
9815;SDS011;4947;44.526;11.360;2022-12-07T15:38:11;39.90;;;22.63;;
9815;SDS011;4947;44.526;11.360;2022-12-07T15:40:39;40.45;;;24.95;;
9815;SDS011;4947;44.526;11.360;2022-12-07T15:43:08;37.10;;;22.13;;
9815;SDS011;4947;44.526;11.360;2022-12-07T15:45:56;43.45;;;24.48;;
9815;SDS011;4947;44.526;11.360;2022-12-07T15:48:24;39.58;;;22.48;;